Time;durP1;ratioP1;P1;durP2;ratioP2;P2;SDS_P1;SDS_P2;PMS_P1;PMS_P2;Temp;Humidity;BMP_temperature;BMP_pressure;BME280_temperature;BME280_humidity;BME280_pressure;Samples;Min_cycle;Max_cycle;Signal;HPM_P1;HPM_P2
2021/09/22 00:00:40;;;;;;;9.50;2.53;;;10.70;99.90;;;;;;5012178;28;20026;-49
2021/09/22 00:03:05;;;;;;;8.93;2.78;;;10.70;99.90;;;;;;5012293;28;20022;-50
2021/09/22 00:05:31;;;;;;;12.05;2.88;;;10.70;99.90;;;;;;5012265;28;20034;-51
2021/09/22 00:07:57;;;;;;;8.02;2.38;;;10.70;99.90;;;;;;4994595;28;20028;-50
2021/09/22 00:10:22;;;;;;;8.93;2.25;;;10.70;99.90;;;;;;4993589;28;20025;-51
2021/09/22 00:12:49;;;;;;;5.35;2.88;;;10.70;99.90;;;;;;5012141;28;20029;-50
2021/09/22 00:15:19;;;;;;;10.80;2.92;;;10.70;99.90;;;;;;5011751;28;20103;-51
2021/09/22 00:17:45;;;;;;;8.40;2.45;;;10.60;99.90;;;;;;5011992;28;20014;-50
2021/09/22 00:20:13;;;;;;;11.48;2.90;;;10.70;99.90;;;;;;5011714;28;20523;-50
2021/09/22 00:22:38;;;;;;;7.15;2.70;;;10.60;99.90;;;;;;5012140;28;20038;-50
2021/09/22 00:25:06;;;;;;;8.65;2.95;;;10.60;99.90;;;;;;5011795;28;20400;-52
2021/09/22 00:27:31;;;;;;;7.78;2.25;;;10.60;99.90;;;;;;5012024;28;20026;-50
2021/09/22 00:30:00;;;;;;;5.13;2.53;;;10.60;99.90;;;;;;5011612;28;20030;-50
2021/09/22 00:32:26;;;;;;;11.18;3.33;;;10.60;99.90;;;;;;5011562;28;20033;-52
2021/09/22 00:34:53;;;;;;;7.30;2.25;;;10.60;99.90;;;;;;5011678;28;20037;-50
2021/09/22 00:37:20;;;;;;;8.60;2.47;;;10.50;99.90;;;;;;5009123;28;20072;-52
2021/09/22 00:39:46;;;;;;;9.23;2.90;;;10.50;99.90;;;;;;5007184;28;20114;-50
2021/09/22 00:42:12;;;;;;;9.20;2.45;;;10.50;99.90;;;;;;4984552;28;20101;-50
2021/09/22 00:44:58;;;;;;;6.82;2.30;;;10.50;99.90;;;;;;5007694;28;20373;-50
2021/09/22 00:47:25;;;;;;;8.55;2.30;;;10.50;99.90;;;;;;5011755;28;20399;-51
2021/09/22 00:49:51;;;;;;;6.88;2.72;;;10.40;99.90;;;;;;5011232;28;20088;-51
2021/09/22 00:52:17;;;;;;;8.02;2.85;;;10.40;99.90;;;;;;5011580;28;20484;-51
2021/09/22 00:54:44;;;;;;;11.70;2.60;;;10.40;99.90;;;;;;5011625;28;20156;-54
2021/09/22 00:57:11;;;;;;;6.40;2.67;;;10.40;99.90;;;;;;5011537;28;20018;-52
2021/09/22 00:59:37;;;;;;;7.32;2.42;;;10.40;99.90;;;;;;5008945;28;20026;-50
2021/09/22 01:02:05;;;;;;;7.18;2.83;;;10.30;99.90;;;;;;5009004;28;20839;-52
2021/09/22 01:04:31;;;;;;;10.52;2.60;;;10.40;99.90;;;;;;5009766;28;20022;-50
2021/09/22 01:06:56;;;;;;;6.45;2.25;;;10.30;99.90;;;;;;5011158;28;20038;-50
2021/09/22 01:09:22;;;;;;;11.25;2.38;;;10.30;99.90;;;;;;5011028;28;20018;-50
2021/09/22 01:11:48;;;;;;;7.32;2.70;;;10.30;99.90;;;;;;4993492;28;20069;-51
2021/09/22 01:14:14;;;;;;;8.63;2.60;;;10.30;99.90;;;;;;5010376;28;20030;-52
2021/09/22 01:16:41;;;;;;;6.82;2.20;;;10.30;99.90;;;;;;5011035;28;20480;-52
2021/09/22 01:19:07;;;;;;;6.43;1.88;;;10.30;99.90;;;;;;5011017;28;20233;-50
2021/09/22 01:21:33;;;;;;;8.73;2.70;;;10.30;99.90;;;;;;5010652;28;20033;-50
2021/09/22 01:23:58;;;;;;;7.63;2.85;;;10.20;99.90;;;;;;4992723;28;20053;-52
2021/09/22 01:26:24;;;;;;;6.07;2.42;;;10.20;99.90;;;;;;5010949;28;20476;-53
2021/09/22 01:28:50;;;;;;;8.35;2.60;;;10.20;99.90;;;;;;5011122;28;20057;-50
2021/09/22 01:31:15;;;;;;;8.63;2.38;;;10.20;99.90;;;;;;5010831;28;20025;-50
2021/09/22 01:33:43;;;;;;;9.30;3.13;;;10.20;99.90;;;;;;5010842;28;20051;-50
2021/09/22 01:36:13;;;;;;;10.52;2.92;;;10.10;99.90;;;;;;5010709;28;20028;-50
2021/09/22 01:38:39;;;;;;;5.25;2.50;;;10.10;99.90;;;;;;5010643;28;20038;-50
2021/09/22 01:41:08;;;;;;;8.80;2.53;;;10.10;99.90;;;;;;5010150;28;20084;-50
2021/09/22 01:43:37;;;;;;;9.85;2.58;;;10.10;99.90;;;;;;5010500;28;20022;-50
2021/09/22 01:46:04;;;;;;;10.02;2.30;;;10.00;99.90;;;;;;5010614;28;20037;-51
2021/09/22 01:48:30;;;;;;;7.30;2.35;;;10.00;99.90;;;;;;5010582;28;20075;-50
2021/09/22 01:50:58;;;;;;;8.73;2.80;;;10.00;99.90;;;;;;5010304;28;20046;-51
2021/09/22 01:53:24;;;;;;;7.18;2.45;;;10.00;99.90;;;;;;5010590;28;20037;-50
2021/09/22 01:55:52;;;;;;;9.52;3.22;;;10.00;99.90;;;;;;5010734;28;20021;-50
2021/09/22 01:58:19;;;;;;;5.57;2.15;;;9.90;99.90;;;;;;5010713;28;20105;-50
2021/09/22 02:00:45;;;;;;;8.27;3.00;;;9.90;99.90;;;;;;4992380;28;20136;-50
2021/09/22 02:03:11;;;;;;;6.95;2.50;;;9.90;99.90;;;;;;4992866;28;20109;-50
2021/09/22 02:05:37;;;;;;;8.70;2.58;;;9.90;99.90;;;;;;5010562;28;20105;-50
2021/09/22 02:08:03;;;;;;;8.23;2.88;;;9.90;99.90;;;;;;5010155;28;20069;-52
2021/09/22 02:10:29;;;;;;;6.55;2.53;;;9.90;99.90;;;;;;5010401;28;20064;-51
2021/09/22 02:12:55;;;;;;;10.20;2.95;;;9.90;99.90;;;;;;5010342;28;20030;-50
2021/09/22 02:15:21;;;;;;;7.00;2.80;;;9.90;99.90;;;;;;5024876;28;20484;-52
2021/09/22 02:17:47;;;;;;;8.02;2.35;;;9.90;99.90;;;;;;5010180;28;20061;-50
2021/09/22 02:20:12;;;;;;;11.57;3.20;;;9.90;99.90;;;;;;5010170;28;20064;-52
2021/09/22 02:22:39;;;;;;;11.80;2.70;;;9.90;99.90;;;;;;4992479;28;20018;-51
2021/09/22 02:25:06;;;;;;;8.88;3.05;;;9.90;99.90;;;;;;5009934;28;20083;-52
2021/09/22 02:27:32;;;;;;;11.27;3.53;;;9.90;99.90;;;;;;5010450;28;20029;-52
2021/09/22 02:29:58;;;;;;;8.93;3.35;;;9.90;99.90;;;;;;5010348;28;20026;-53
2021/09/22 02:32:24;;;;;;;10.00;3.25;;;9.90;99.90;;;;;;5010301;28;20531;-50
2021/09/22 02:34:49;;;;;;;7.03;2.60;;;9.90;99.90;;;;;;5012836;28;20061;-52
2021/09/22 02:37:15;;;;;;;8.98;3.60;;;9.90;99.90;;;;;;5013763;28;20026;-51
2021/09/22 02:39:40;;;;;;;8.73;2.75;;;9.90;99.90;;;;;;5013574;28;20033;-51
2021/09/22 02:42:06;;;;;;;10.73;3.22;;;9.90;99.90;;;;;;5013671;28;20104;-52
2021/09/22 02:44:32;;;;;;;7.20;2.63;;;9.90;99.90;;;;;;5013886;28;20109;-50
2021/09/22 02:46:58;;;;;;;8.75;3.53;;;9.90;99.90;;;;;;5013775;28;20026;-51
2021/09/22 02:49:23;;;;;;;9.38;3.00;;;9.90;99.90;;;;;;5013125;28;20030;-52
2021/09/22 02:51:49;;;;;;;9.90;3.05;;;9.90;99.90;;;;;;5013285;28;20588;-53
2021/09/22 02:54:15;;;;;;;9.00;2.95;;;9.90;99.90;;;;;;5013565;28;20145;-50
2021/09/22 02:56:41;;;;;;;10.00;3.72;;;9.90;99.90;;;;;;5013605;28;20101;-52
2021/09/22 02:59:06;;;;;;;4.32;2.28;;;9.80;99.90;;;;;;4995810;28;20036;-50
2021/09/22 03:01:32;;;;;;;9.35;3.10;;;9.80;99.90;;;;;;5013897;28;20427;-50
2021/09/22 03:03:59;;;;;;;12.40;3.33;;;9.80;99.90;;;;;;5013851;28;20030;-50
2021/09/22 03:06:25;;;;;;;8.63;3.25;;;9.80;99.90;;;;;;5013277;28;20022;-52
2021/09/22 03:08:50;;;;;;;7.47;2.88;;;9.80;99.90;;;;;;5013313;28;20393;-50
2021/09/22 03:11:16;;;;;;;6.80;2.97;;;9.80;99.90;;;;;;5013068;28;20026;-50
2021/09/22 03:13:42;;;;;;;5.68;2.53;;;9.70;99.90;;;;;;5013392;28;20101;-50
2021/09/22 03:16:08;;;;;;;6.93;2.22;;;9.80;99.90;;;;;;5039537;22;20508;-51
2021/09/22 03:18:34;;;;;;;7.22;3.25;;;9.70;99.90;;;;;;5014862;28;20022;-50
2021/09/22 03:21:00;;;;;;;6.30;3.13;;;9.70;99.90;;;;;;5032345;28;20084;-48
2021/09/22 03:23:26;;;;;;;9.38;3.08;;;9.70;99.90;;;;;;5032706;28;20442;-52
2021/09/22 03:25:52;;;;;;;11.45;3.40;;;9.70;99.90;;;;;;5032288;28;20151;-56
2021/09/22 03:28:17;;;;;;;6.47;2.67;;;9.70;99.90;;;;;;5032513;28;20084;-50
2021/09/22 03:30:43;;;;;;;6.05;2.63;;;9.70;99.90;;;;;;5032375;28;20029;-49
2021/09/22 03:33:09;;;;;;;6.68;2.83;;;9.70;99.90;;;;;;5032907;28;20395;-48
2021/09/22 03:35:34;;;;;;;9.80;3.10;;;9.60;99.90;;;;;;5032838;28;20028;-51
2021/09/22 03:38:00;;;;;;;9.82;2.90;;;9.60;99.90;;;;;;5032514;28;20076;-52
2021/09/22 03:40:26;;;;;;;7.68;3.00;;;9.60;99.90;;;;;;5032077;28;20087;-50
2021/09/22 03:42:52;;;;;;;7.25;3.10;;;9.60;99.90;;;;;;5032336;28;20021;-52
2021/09/22 03:45:17;;;;;;;5.95;3.13;;;9.60;99.90;;;;;;5031360;28;20555;-48
2021/09/22 03:47:43;;;;;;;8.63;2.88;;;9.60;99.90;;;;;;5032330;28;20026;-50
2021/09/22 03:50:10;;;;;;;8.73;3.25;;;9.60;99.90;;;;;;5031946;28;20026;-49
2021/09/22 03:52:36;;;;;;;5.05;3.20;;;9.60;99.90;;;;;;5032234;28;20030;-49
2021/09/22 03:55:03;;;;;;;9.30;3.33;;;9.60;99.90;;;;;;5032126;28;20387;-50
2021/09/22 03:57:29;;;;;;;11.38;3.50;;;9.60;99.90;;;;;;5031952;28;20143;-50
2021/09/22 03:59:55;;;;;;;6.78;3.03;;;9.50;99.90;;;;;;5031647;28;20030;-50
2021/09/22 04:02:21;;;;;;;6.60;2.50;;;9.50;99.90;;;;;;5014274;28;20017;-48
2021/09/22 04:04:47;;;;;;;7.22;2.85;;;9.50;99.90;;;;;;5032071;28;20021;-54
2021/09/22 04:07:12;;;;;;;6.70;3.13;;;9.50;99.90;;;;;;5032267;28;20762;-50
2021/09/22 04:09:38;;;;;;;7.97;2.80;;;9.50;99.90;;;;;;5014022;28;20021;-48
2021/09/22 04:12:04;;;;;;;7.63;2.97;;;9.50;99.90;;;;;;5014124;28;20025;-52
2021/09/22 04:14:29;;;;;;;11.43;3.08;;;9.50;99.90;;;;;;5031514;28;20060;-50
2021/09/22 04:16:55;;;;;;;7.28;3.38;;;9.50;99.90;;;;;;5031677;28;20069;-52
2021/09/22 04:19:21;;;;;;;8.15;3.35;;;9.50;99.90;;;;;;5031526;28;20025;-49
2021/09/22 04:21:46;;;;;;;11.82;2.85;;;9.50;99.90;;;;;;5031642;28;20056;-49
2021/09/22 04:24:12;;;;;;;10.70;3.05;;;9.50;99.90;;;;;;5031298;28;20488;-48
2021/09/22 04:26:38;;;;;;;9.88;3.33;;;9.50;99.90;;;;;;5031524;28;20025;-48
2021/09/22 04:29:04;;;;;;;7.85;3.17;;;9.50;99.90;;;;;;5031351;28;20017;-49
2021/09/22 04:31:30;;;;;;;9.82;3.35;;;9.50;99.90;;;;;;5031492;28;20029;-50
2021/09/22 04:33:57;;;;;;;11.32;3.58;;;9.50;99.90;;;;;;5031455;28;20060;-50
2021/09/22 04:36:23;;;;;;;9.95;3.38;;;9.50;99.90;;;;;;5031355;28;20026;-48
2021/09/22 04:38:49;;;;;;;8.32;3.65;;;9.50;99.90;;;;;;5031524;28;20079;-49
2021/09/22 04:41:14;;;;;;;8.13;3.15;;;9.50;99.90;;;;;;5031224;28;20022;-53
2021/09/22 04:43:40;;;;;;;5.82;2.95;;;9.60;99.90;;;;;;5031479;28;20337;-51
2021/09/22 04:46:06;;;;;;;9.55;3.00;;;9.50;99.90;;;;;;5031086;28;20025;-50
2021/09/22 04:48:32;;;;;;;6.95;3.38;;;9.50;99.90;;;;;;5031097;28;20021;-48
2021/09/22 04:50:57;;;;;;;7.47;3.10;;;9.50;99.90;;;;;;5030023;28;20518;-47
2021/09/22 04:53:23;;;;;;;8.25;3.17;;;9.50;99.90;;;;;;5013268;28;20113;-48
2021/09/22 04:55:49;;;;;;;6.68;2.85;;;9.50;99.90;;;;;;5030778;28;20059;-50
2021/09/22 04:58:15;;;;;;;5.90;2.95;;;9.60;99.90;;;;;;5030676;28;20017;-51
2021/09/22 05:00:40;;;;;;;7.30;3.20;;;9.60;99.90;;;;;;5030563;28;20032;-53
2021/09/22 05:03:06;;;;;;;7.85;2.85;;;9.50;99.90;;;;;;5031004;28;20064;-52
2021/09/22 05:05:32;;;;;;;8.70;3.97;;;9.60;99.90;;;;;;5030776;28;20036;-51
2021/09/22 05:08:00;;;;;;;9.05;3.70;;;9.60;99.90;;;;;;5030970;28;20480;-50
2021/09/22 05:10:26;;;;;;;11.18;4.15;;;9.60;99.90;;;;;;5030795;28;20025;-49
2021/09/22 05:12:52;;;;;;;13.15;4.38;;;9.60;99.90;;;;;;5030908;28;20030;-49
2021/09/22 05:15:18;;;;;;;8.13;3.00;;;9.70;99.90;;;;;;5030304;28;20041;-54
2021/09/22 05:17:44;;;;;;;9.98;2.92;;;9.70;99.90;;;;;;5030549;28;20103;-50
2021/09/22 05:20:11;;;;;;;10.07;3.95;;;9.70;99.90;;;;;;5030296;28;20108;-53
2021/09/22 05:22:36;;;;;;;6.88;3.17;;;9.70;99.90;;;;;;5030343;28;20022;-51
2021/09/22 05:25:04;;;;;;;10.43;3.45;;;9.70;99.90;;;;;;5030229;28;20025;-56
2021/09/22 05:27:29;;;;;;;8.30;3.55;;;9.70;99.90;;;;;;5030500;28;20061;-53
2021/09/22 05:29:55;;;;;;;9.60;3.15;;;9.70;99.90;;;;;;5030163;28;20071;-52
2021/09/22 05:32:21;;;;;;;12.82;3.75;;;9.70;99.90;;;;;;5030444;28;20113;-49
2021/09/22 05:34:47;;;;;;;12.95;2.40;;;9.80;99.90;;;;;;5030099;28;20033;-49
2021/09/22 05:37:12;;;;;;;7.25;3.55;;;9.80;99.90;;;;;;5030278;28;20395;-51
2021/09/22 05:39:39;;;;;;;9.88;2.67;;;9.80;99.90;;;;;;5029930;28;20037;-52
2021/09/22 05:42:05;;;;;;;10.75;3.05;;;9.70;99.90;;;;;;5030086;28;20468;-50
2021/09/22 05:44:31;;;;;;;4.45;2.55;;;9.80;99.90;;;;;;5012953;28;20025;-51
2021/09/22 05:46:57;;;;;;;6.95;2.63;;;9.80;99.90;;;;;;5012670;28;20022;-50
2021/09/22 05:49:22;;;;;;;8.50;2.97;;;9.80;99.90;;;;;;5029656;28;20108;-50
2021/09/22 05:51:48;;;;;;;10.02;3.17;;;9.80;99.90;;;;;;5029476;28;20518;-52
2021/09/22 05:54:15;;;;;;;8.10;3.60;;;9.80;99.90;;;;;;5030161;28;20148;-55
2021/09/22 05:56:42;;;;;;;5.60;2.38;;;9.80;99.90;;;;;;5012252;28;20586;-53
2021/09/22 05:59:09;;;;;;;8.30;2.90;;;9.80;99.90;;;;;;5029856;28;20558;-55
2021/09/22 06:01:35;;;;;;;7.43;3.10;;;9.80;99.90;;;;;;5029930;28;20108;-50
2021/09/22 06:04:00;;;;;;;9.48;2.75;;;9.90;99.90;;;;;;5030203;28;20129;-54
2021/09/22 06:06:27;;;;;;;5.75;2.70;;;9.90;99.90;;;;;;5029982;28;20032;-54
2021/09/22 06:08:53;;;;;;;10.63;3.13;;;9.90;99.90;;;;;;5033240;28;20036;-51
2021/09/22 06:11:18;;;;;;;9.20;3.00;;;9.90;99.90;;;;;;5018563;28;20484;-53
2021/09/22 06:13:45;;;;;;;10.05;3.30;;;9.90;99.90;;;;;;5036805;28;20021;-49
2021/09/22 06:16:11;;;;;;;7.55;3.58;;;9.90;99.90;;;;;;5036497;28;20068;-55
2021/09/22 06:18:37;;;;;;;7.72;3.30;;;10.00;99.90;;;;;;5036514;28;20052;-52
2021/09/22 06:21:04;;;;;;;11.10;3.35;;;10.00;99.90;;;;;;5036178;28;20423;-55
2021/09/22 06:23:30;;;;;;;12.50;3.03;;;10.00;99.90;;;;;;5036412;28;20045;-52
2021/09/22 06:25:55;;;;;;;7.55;2.65;;;10.00;99.90;;;;;;5036155;28;20049;-53
2021/09/22 06:28:21;;;;;;;7.00;3.05;;;10.10;99.90;;;;;;5036378;28;20021;-53
2021/09/22 06:30:48;;;;;;;11.48;3.53;;;10.10;99.90;;;;;;5035900;28;20069;-52
2021/09/22 06:33:13;;;;;;;11.73;3.05;;;10.20;99.90;;;;;;5018520;28;20467;-52
2021/09/22 06:35:39;;;;;;;10.90;3.38;;;10.20;99.90;;;;;;5036276;28;20105;-49
2021/09/22 06:38:05;;;;;;;12.52;2.67;;;10.30;99.90;;;;;;5036312;28;20627;-50
2021/09/22 06:40:31;;;;;;;9.73;2.75;;;10.30;99.90;;;;;;5035980;28;20392;-53
2021/09/22 06:42:56;;;;;;;11.05;3.88;;;10.40;99.90;;;;;;5036242;28;20021;-50
2021/09/22 06:45:22;;;;;;;13.68;4.28;;;10.50;99.90;;;;;;5036198;28;20444;-49
2021/09/22 06:47:51;;;;;;;15.43;4.53;;;10.50;99.90;;;;;;5036384;28;20084;-51
2021/09/22 06:50:17;;;;;;;14.55;5.20;;;10.60;99.90;;;;;;5036291;28;20463;-49
2021/09/22 06:52:43;;;;;;;15.70;4.85;;;10.70;99.90;;;;;;5036225;28;20109;-54
2021/09/22 06:55:09;;;;;;;11.50;4.43;;;10.80;99.90;;;;;;5036063;28;20468;-50
2021/09/22 06:57:34;;;;;;;20.20;6.07;;;10.80;99.90;;;;;;5035904;28;20053;-51
2021/09/22 07:00:00;;;;;;;13.77;5.07;;;11.00;99.90;;;;;;5018011;28;20029;-53
2021/09/22 07:02:26;;;;;;;19.50;6.20;;;11.10;99.90;;;;;;5036046;28;20048;-52
2021/09/22 07:04:52;;;;;;;19.77;6.70;;;11.20;99.90;;;;;;5036047;28;20496;-52
2021/09/22 07:07:17;;;;;;;17.63;5.47;;;11.30;99.90;;;;;;5036170;28;20026;-53
2021/09/22 07:09:43;;;;;;;14.88;6.93;;;11.40;99.90;;;;;;5035827;28;20029;-52
2021/09/22 07:12:09;;;;;;;13.90;5.35;;;11.50;99.90;;;;;;5018285;28;20575;-52
2021/09/22 07:14:34;;;;;;;16.73;6.43;;;11.60;99.90;;;;;;5035526;28;20048;-53
2021/09/22 07:17:00;;;;;;;19.48;6.47;;;11.70;99.90;;;;;;5035680;28;20086;-54
2021/09/22 07:19:26;;;;;;;13.90;6.57;;;11.80;99.90;;;;;;5035620;28;20322;-54
2021/09/22 07:21:51;;;;;;;17.33;7.47;;;11.80;99.90;;;;;;5032990;28;20100;-55
2021/09/22 07:24:17;;;;;;;18.13;6.60;;;11.90;99.90;;;;;;5032579;28;20579;-54
2021/09/22 07:26:42;;;;;;;17.92;6.50;;;12.00;99.90;;;;;;5032440;28;20032;-51
2021/09/22 07:29:08;;;;;;;16.65;6.50;;;12.10;99.90;;;;;;5032582;28;20401;-48
2021/09/22 07:31:35;;;;;;;15.15;6.65;;;12.20;99.90;;;;;;5032492;28;20029;-50
2021/09/22 07:34:01;;;;;;;20.73;6.70;;;12.30;99.90;;;;;;5032477;28;20040;-51
2021/09/22 07:36:27;;;;;;;15.07;5.72;;;12.40;99.90;;;;;;5014797;28;20041;-48
2021/09/22 07:38:53;;;;;;;16.52;6.53;;;12.40;99.90;;;;;;5032346;28;20076;-50
2021/09/22 07:41:18;;;;;;;18.08;6.85;;;12.50;99.90;;;;;;5032226;28;20030;-48
2021/09/22 07:43:44;;;;;;;15.05;6.50;;;12.70;99.90;;;;;;5032350;28;20025;-52
2021/09/22 07:46:10;;;;;;;17.85;6.88;;;12.80;99.90;;;;;;5032433;28;20044;-51
2021/09/22 07:48:36;;;;;;;15.38;6.45;;;12.90;99.90;;;;;;5032231;28;20500;-48
2021/09/22 07:51:02;;;;;;;18.33;6.72;;;13.10;99.90;;;;;;5031865;28;20028;-53
2021/09/22 07:53:28;;;;;;;11.88;6.47;;;13.20;99.90;;;;;;5032357;28;20540;-51
2021/09/22 07:55:54;;;;;;;9.23;5.70;;;13.30;99.90;;;;;;5032630;28;20108;-51
2021/09/22 07:58:20;;;;;;;16.67;6.53;;;13.50;99.90;;;;;;5031936;28;20017;-52
2021/09/22 08:00:46;;;;;;;11.70;6.80;;;13.60;99.90;;;;;;5031671;28;20061;-52
2021/09/22 08:03:11;;;;;;;13.57;6.95;;;13.80;99.90;;;;;;5032088;28;20056;-53
2021/09/22 08:05:40;;;;;;;15.90;7.38;;;14.00;99.90;;;;;;5031931;28;20449;-50
2021/09/22 08:08:07;;;;;;;8.25;5.10;;;14.20;99.90;;;;;;5031816;28;20033;-50
2021/09/22 08:10:34;;;;;;;10.50;5.18;;;14.40;99.90;;;;;;5031490;28;20060;-49
2021/09/22 08:13:00;;;;;;;14.07;5.85;;;14.60;99.90;;;;;;5031809;28;20108;-48
2021/09/22 08:15:25;;;;;;;9.50;5.70;;;14.70;99.90;;;;;;5031436;28;20521;-49
2021/09/22 08:17:51;;;;;;;11.48;4.85;;;14.90;99.90;;;;;;5031758;28;20029;-52
2021/09/22 08:20:16;;;;;;;12.63;5.55;;;15.10;99.90;;;;;;5031257;28;20026;-52
2021/09/22 08:22:44;;;;;;;11.50;5.05;;;15.30;99.90;;;;;;5031820;28;20484;-52
2021/09/22 08:25:10;;;;;;;12.57;5.63;;;15.50;99.90;;;;;;5031598;28;20599;-54
2021/09/22 08:27:36;;;;;;;11.45;6.10;;;15.60;99.90;;;;;;5013739;28;20112;-53
2021/09/22 08:30:04;;;;;;;12.93;5.93;;;15.70;99.90;;;;;;5031196;28;20091;-50
2021/09/22 08:32:30;;;;;;;14.70;5.60;;;15.70;99.90;;;;;;5030999;28;20113;-50
2021/09/22 08:34:56;;;;;;;14.95;4.82;;;15.70;99.90;;;;;;5031287;28;20133;-51
2021/09/22 08:37:21;;;;;;;10.98;5.10;;;15.80;99.90;;;;;;5031422;28;20022;-49
2021/09/22 08:39:47;;;;;;;11.27;5.90;;;15.90;99.90;;;;;;5031039;28;20071;-51
2021/09/22 08:42:13;;;;;;;13.75;5.78;;;16.10;99.90;;;;;;5031126;28;20202;-51
2021/09/22 08:44:38;;;;;;;15.43;6.50;;;16.20;99.90;;;;;;5031213;28;20017;-49
2021/09/22 08:47:04;;;;;;;15.38;6.97;;;16.20;99.90;;;;;;5031021;28;20476;-56
2021/09/22 08:49:30;;;;;;;11.80;5.72;;;16.30;99.90;;;;;;5030705;28;20022;-52
2021/09/22 08:51:56;;;;;;;9.05;4.85;;;16.30;99.90;;;;;;5030512;28;20061;-53
2021/09/22 08:54:22;;;;;;;12.02;5.10;;;16.20;99.90;;;;;;5013382;28;20029;-53
2021/09/22 08:56:48;;;;;;;11.93;5.20;;;16.00;99.90;;;;;;5031200;28;20035;-56
2021/09/22 08:59:15;;;;;;;10.73;5.13;;;16.00;99.90;;;;;;5030880;28;20057;-50
2021/09/22 09:01:41;;;;;;;11.50;5.40;;;16.00;99.90;;;;;;5013340;28;20022;-52
2021/09/22 09:04:19;;;;;;;14.48;5.22;;;16.10;99.90;;;;;;5031158;28;20032;-52
2021/09/22 09:06:45;;;;;;;10.77;5.57;;;16.00;99.90;;;;;;5030678;28;20054;-54
2021/09/22 09:09:12;;;;;;;11.90;5.30;;;16.10;99.90;;;;;;5030489;28;20365;-54
2021/09/22 09:11:41;;;;;;;10.65;4.55;;;16.10;99.90;;;;;;5030840;28;20116;-53
2021/09/22 09:14:10;;;;;;;11.48;4.53;;;16.20;99.90;;;;;;5012585;28;20034;-50
2021/09/22 09:16:42;;;;;;;9.00;4.25;;;16.30;99.90;;;;;;5030610;28;20037;-54
2021/09/22 09:19:16;;;;;;;9.73;4.53;;;16.30;99.90;;;;;;5030560;28;20108;-53
2021/09/22 09:21:59;;;;;;;13.93;5.32;;;16.40;99.90;;;;;;5030559;28;20112;-54
2021/09/22 09:24:34;;;;;;;12.77;4.82;;;16.40;99.90;;;;;;5030262;28;20025;-53
2021/09/22 09:27:02;;;;;;;14.80;4.85;;;16.40;99.90;;;;;;5030676;28;20017;-49
2021/09/22 09:29:28;;;;;;;11.65;4.90;;;16.50;99.90;;;;;;4996389;28;20029;-54
2021/09/22 09:32:12;;;;;;;12.85;3.97;;;16.50;99.90;;;;;;5030851;28;20033;-55
2021/09/22 09:34:55;;;;;;;11.02;4.13;;;16.60;99.90;;;;;;5030259;28;20034;-54
2021/09/22 09:37:31;;;;;;;12.57;4.45;;;16.70;99.90;;;;;;5030544;28;20466;-51
2021/09/22 09:40:14;;;;;;;11.57;4.20;;;16.80;99.90;;;;;;5030052;28;20057;-55
2021/09/22 09:42:40;;;;;;;7.68;3.95;;;16.90;99.90;;;;;;5029729;28;20057;-52
2021/09/22 09:45:06;;;;;;;9.60;4.45;;;17.00;99.90;;;;;;5029451;28;20038;-55
2021/09/22 09:47:31;;;;;;;7.95;4.25;;;17.20;99.90;;;;;;5030210;28;20399;-53
2021/09/22 09:50:18;;;;;;;9.88;3.85;;;17.50;99.90;;;;;;5029794;28;20025;-55
2021/09/22 09:53:00;;;;;;;7.20;4.35;;;17.60;99.90;;;;;;5030205;28;20515;-51
2021/09/22 09:55:26;;;;;;;8.85;3.97;;;17.70;99.90;;;;;;5012288;28;20396;-53
2021/09/22 09:57:54;;;;;;;11.93;3.70;;;17.80;99.90;;;;;;5030286;28;20025;-50
2021/09/22 10:00:43;;;;;;;11.32;4.18;;;17.80;99.90;;;;;;5030158;28;20116;-55
2021/09/22 10:03:12;;;;;;;10.05;3.95;;;17.90;99.90;;;;;;5030073;28;20020;-53
2021/09/22 10:05:38;;;;;;;7.68;3.63;;;18.00;99.90;;;;;;5029875;28;20021;-55
2021/09/22 10:08:04;;;;;;;8.10;3.42;;;17.90;99.90;;;;;;5012314;28;20021;-52
2021/09/22 10:10:30;;;;;;;9.45;4.53;;;18.00;99.90;;;;;;5030758;28;20040;-52
2021/09/22 10:12:56;;;;;;;7.10;3.35;;;18.00;99.90;;;;;;5029889;28;20072;-53
2021/09/22 10:15:28;;;;;;;8.18;3.95;;;17.90;99.90;;;;;;5029560;28;20052;-49
2021/09/22 10:17:55;;;;;;;9.05;4.22;;;17.70;99.90;;;;;;5029871;28;20087;-53
2021/09/22 10:20:20;;;;;;;9.60;4.20;;;17.80;99.90;;;;;;5030027;28;20033;-50
2021/09/22 10:22:46;;;;;;;6.35;3.92;;;17.70;99.90;;;;;;5029915;28;20026;-55
2021/09/22 10:25:13;;;;;;;9.40;3.92;;;17.70;99.90;;;;;;5029736;28;20393;-51
2021/09/22 10:27:39;;;;;;;11.07;4.20;;;17.80;99.90;;;;;;5030066;28;20029;-52
2021/09/22 10:30:08;;;;;;;10.82;4.18;;;17.70;99.90;;;;;;5029726;28;20030;-51
2021/09/22 10:32:36;;;;;;;10.38;4.93;;;17.60;99.90;;;;;;5029952;28;20091;-52
2021/09/22 10:35:24;;;;;;;10.75;4.22;;;17.60;99.90;;;;;;5029864;28;20064;-49
2021/09/22 10:37:50;;;;;;;7.68;3.58;;;17.50;99.90;;;;;;5029707;28;20025;-53
2021/09/22 10:40:31;;;;;;;6.20;2.92;;;17.50;99.90;;;;;;5029493;28;20021;-50
2021/09/22 10:43:16;;;;;;;7.15;2.90;;;17.30;99.90;;;;;;5029554;28;20121;-49
2021/09/22 10:45:46;;;;;;;7.23;3.73;;;17.20;99.90;;;;;;5029604;28;20029;-54
2021/09/22 10:48:16;;;;;;;7.40;3.55;;;17.00;99.90;;;;;;5029639;28;20028;-52
2021/09/22 10:50:42;;;;;;;11.65;3.00;;;16.90;99.90;;;;;;5029398;28;20104;-52
2021/09/22 10:53:46;;;;;;;12.45;3.58;;;16.80;99.90;;;;;;5029681;28;20100;-49
2021/09/22 10:56:20;;;;;;;10.15;3.28;;;16.90;99.90;;;;;;4952374;28;20415;-52
2021/09/22 10:58:52;;;;;;;7.82;3.58;;;17.00;99.90;;;;;;4952757;29;20119;-50
2021/09/22 11:01:39;;;;;;;8.43;3.72;;;17.10;99.90;;;;;;4998327;28;20041;-51
2021/09/22 11:04:06;;;;;;;9.07;3.65;;;17.20;99.90;;;;;;5033756;28;20018;-55
2021/09/22 11:06:50;;;;;;;8.43;3.55;;;17.10;99.90;;;;;;5033419;28;20039;-55
2021/09/22 11:09:21;;;;;;;6.13;3.05;;;17.00;99.90;;;;;;5032825;28;20014;-54
2021/09/22 11:11:56;;;;;;;5.13;2.70;;;17.00;99.90;;;;;;5033099;28;20030;-52
2021/09/22 11:14:30;;;;;;;7.18;2.80;;;17.00;99.90;;;;;;5032672;28;20028;-51
2021/09/22 11:17:29;;;;;;;4.97;2.53;;;16.90;99.90;;;;;;5032943;28;20525;-53
2021/09/22 11:19:58;;;;;;;10.13;3.53;;;17.00;99.90;;;;;;4988619;28;20474;-54
2021/09/22 11:22:31;;;;;;;7.63;3.30;;;17.00;99.90;;;;;;5032756;28;20104;-52
2021/09/22 11:25:03;;;;;;;7.50;3.78;;;17.10;99.90;;;;;;5032473;28;20457;-52
2021/09/22 11:27:31;;;;;;;7.93;3.65;;;17.10;99.90;;;;;;5032851;28;20025;-56
2021/09/22 11:30:00;;;;;;;9.15;3.63;;;17.00;99.90;;;;;;5032616;28;20423;-57
2021/09/22 11:32:35;;;;;;;7.10;3.50;;;17.00;99.90;;;;;;5032681;28;20036;-52
2021/09/22 11:35:02;;;;;;;6.95;3.70;;;17.00;99.90;;;;;;5032561;28;20044;-56
2021/09/22 11:37:41;;;;;;;4.63;3.35;;;16.90;99.90;;;;;;5032983;28;20079;-51
2021/09/22 11:40:10;;;;;;;7.53;3.65;;;16.80;99.90;;;;;;5032193;28;20040;-52
2021/09/22 11:42:41;;;;;;;7.32;2.97;;;16.80;99.90;;;;;;5014793;28;20068;-52
2021/09/22 11:45:08;;;;;;;8.82;3.65;;;16.70;99.90;;;;;;5032412;28;20052;-53
2021/09/22 11:47:34;;;;;;;6.22;4.03;;;16.70;99.90;;;;;;5032359;28;20029;-55
2021/09/22 11:49:59;;;;;;;7.47;3.15;;;16.80;99.90;;;;;;5031105;28;20036;-54
2021/09/22 11:52:26;;;;;;;7.80;3.50;;;16.90;99.90;;;;;;5032367;28;20029;-53
2021/09/22 11:54:58;;;;;;;7.15;2.70;;;16.90;99.90;;;;;;5031973;28;20091;-50
2021/09/22 11:57:30;;;;;;;7.45;3.13;;;16.90;99.90;;;;;;5032302;28;20072;-53
2021/09/22 11:59:56;;;;;;;8.35;2.75;;;16.90;99.90;;;;;;5031846;28;20036;-51
2021/09/22 12:02:28;;;;;;;8.93;2.97;;;17.00;99.90;;;;;;5031927;28;20099;-51
2021/09/22 12:04:57;;;;;;;7.82;3.03;;;17.00;99.90;;;;;;5032080;28;20041;-54
2021/09/22 12:07:29;;;;;;;4.32;2.20;;;17.00;99.90;;;;;;5031182;28;20057;-55
2021/09/22 12:10:01;;;;;;;5.88;2.65;;;17.00;99.90;;;;;;5013990;28;20021;-52
2021/09/22 12:12:27;;;;;;;9.43;2.90;;;17.00;99.90;;;;;;5032047;28;20492;-53
2021/09/22 12:14:55;;;;;;;6.35;2.78;;;17.20;99.90;;;;;;5030616;28;20112;-52
2021/09/22 12:17:28;;;;;;;3.38;2.80;;;17.30;99.90;;;;;;5031988;28;20391;-51
2021/09/22 12:19:54;;;;;;;6.22;3.00;;;17.40;99.90;;;;;;5013795;28;20033;-57
2021/09/22 12:22:26;;;;;;;4.05;2.50;;;17.50;99.90;;;;;;5031676;28;20032;-56
2021/09/22 12:24:53;;;;;;;7.05;3.42;;;17.50;99.90;;;;;;5031299;28;20026;-53
2021/09/22 12:27:23;;;;;;;8.00;3.60;;;17.60;99.90;;;;;;5031548;28;20053;-52
2021/09/22 12:30:07;;;;;;;5.35;2.42;;;17.70;99.90;;;;;;5031582;28;20024;-49
2021/09/22 12:32:56;;;;;;;9.52;3.78;;;17.70;99.90;;;;;;5030767;28;20018;-53
2021/09/22 12:35:26;;;;;;;7.10;3.10;;;17.80;99.90;;;;;;5030404;28;20029;-55
2021/09/22 12:38:02;;;;;;;4.15;2.58;;;17.80;99.90;;;;;;5030679;28;20446;-51
2021/09/22 12:40:35;;;;;;;4.30;2.50;;;17.80;99.90;;;;;;5030422;28;20500;-50
2021/09/22 12:43:04;;;;;;;6.60;2.63;;;17.80;99.90;;;;;;5030556;28;20063;-54
2021/09/22 12:45:32;;;;;;;5.50;2.50;;;17.90;99.90;;;;;;5030877;28;20064;-53
2021/09/22 12:48:05;;;;;;;4.45;2.28;;;17.90;99.90;;;;;;5031068;28;20021;-54